Time;durP1;ratioP1;P1;durP2;ratioP2;P2;SDS_P1;SDS_P2;PMS_P1;PMS_P2;Temp;Humidity;BMP_temperature;BMP_pressure;BME280_temperature;BME280_humidity;BME280_pressure;Samples;Min_cycle;Max_cycle;Signal;HPM_P1;HPM_P2
2022/12/06 00:00:44;;;;;;;;;;;;;;;27.84;25.38;101653.94;5097216;28;1100;-28
2022/12/06 00:03:10;;;;;;;;;;;;;;;27.65;25.55;101646.94;5085682;28;1052;-27
2022/12/06 00:05:35;;;;;;;;;;;;;;;28.02;25.14;101644.00;5097190;28;1167;-30
2022/12/06 00:08:00;;;;;;;;;;;;;;;28.46;24.44;101656.41;5096548;28;1965;-30
2022/12/06 00:10:25;;;;;;;;;;;;;;;27.96;25.30;101656.34;5096888;28;1162;-28
2022/12/06 00:12:51;;;;;;;;;;;;;;;27.60;25.54;101642.03;5097098;28;1119;-27
2022/12/06 00:15:16;;;;;;;;;;;;;;;27.71;25.49;101643.59;5082914;28;1408;-30
2022/12/06 00:17:41;;;;;;;;;;;;;;;28.45;24.60;101643.88;5096842;28;1111;-28
2022/12/06 00:20:07;;;;;;;;;;;;;;;28.20;24.72;101638.44;5095904;28;1159;-27
2022/12/06 00:22:32;;;;;;;;;;;;;;;27.65;25.62;101640.69;5096757;28;1115;-25
2022/12/06 00:24:57;;;;;;;;;;;;;;;27.77;25.73;101638.56;5096268;28;1155;-26
2022/12/06 00:27:23;;;;;;;;;;;;;;;28.41;24.53;101635.22;5084845;28;1969;-26
2022/12/06 00:29:48;;;;;;;;;;;;;;;28.35;24.37;101625.09;5096409;28;1115;-28
2022/12/06 00:32:13;;;;;;;;;;;;;;;27.74;25.42;101628.94;5096264;28;1151;-26
2022/12/06 00:34:38;;;;;;;;;;;;;;;27.81;25.46;101632.66;5096761;28;1179;-27
2022/12/06 00:37:04;;;;;;;;;;;;;;;28.46;24.65;101632.03;5096636;28;1213;-26
2022/12/06 00:39:29;;;;;;;;;;;;;;;28.39;24.68;101631.03;5085744;28;932;-27
2022/12/06 00:41:55;;;;;;;;;;;;;;;27.65;25.61;101629.88;5096532;28;1196;-27
2022/12/06 00:44:20;;;;;;;;;;;;;;;27.75;25.40;101622.50;5096151;28;1123;-30
2022/12/06 00:46:45;;;;;;;;;;;;;;;28.26;24.59;101618.81;5096332;28;1897;-28
2022/12/06 00:49:11;;;;;;;;;;;;;;;28.56;24.41;101621.03;5096180;28;1171;-27
2022/12/06 00:51:36;;;;;;;;;;;;;;;27.82;25.52;101610.03;5087816;28;957;-29
2022/12/06 00:54:02;;;;;;;;;;;;;;;27.75;25.40;101609.84;5096119;28;1195;-29
2022/12/06 00:56:27;;;;;;;;;;;;;;;28.41;24.41;101602.75;5096535;28;1203;-27
2022/12/06 00:58:52;;;;;;;;;;;;;;;28.54;24.48;101598.69;5096211;28;1159;-27
2022/12/06 01:01:21;;;;;;;;;;;;;;;27.73;25.79;101600.19;5096017;28;1890;-31
2022/12/06 01:03:50;;;;;;;;;;;;;;;27.79;25.41;101596.00;5089303;28;893;-27
2022/12/06 01:06:15;;;;;;;;;;;;;;;28.25;24.70;101595.47;5096146;28;1937;-29
2022/12/06 01:08:40;;;;;;;;;;;;;;;28.57;24.43;101601.91;5096174;28;1119;-29
2022/12/06 01:11:06;;;;;;;;;;;;;;;27.68;25.57;101592.59;5095788;28;1131;-27
2022/12/06 01:13:31;;;;;;;;;;;;;;;27.62;25.98;101598.63;5096080;28;1166;-31
2022/12/06 01:15:57;;;;;;;;;;;;;;;28.02;25.16;101598.88;5086013;28;1098;-28
2022/12/06 01:18:22;;;;;;;;;;;;;;;28.40;24.57;101595.66;5077895;28;1390;-27
2022/12/06 01:20:47;;;;;;;;;;;;;;;27.81;25.24;101591.25;5095831;28;1124;-30
2022/12/06 01:23:13;;;;;;;;;;;;;;;27.69;25.56;101588.03;5096275;28;1155;-28
2022/12/06 01:25:38;;;;;;;;;;;;;;;28.13;24.54;101594.16;5096123;28;1111;-29
2022/12/06 01:28:04;;;;;;;;;;;;;;;28.57;24.54;101582.97;5088230;28;1971;-28
2022/12/06 01:30:29;;;;;;;;;;;;;;;27.78;25.60;101586.19;5096583;28;1139;-28
2022/12/06 01:32:54;;;;;;;;;;;;;;;27.65;25.67;101578.53;5100025;28;1155;-30
2022/12/06 01:35:19;;;;;;;;;;;;;;;27.88;25.27;101573.34;5099802;28;1103;-29
2022/12/06 01:37:45;;;;;;;;;;;;;;;28.40;24.89;101568.59;5099763;28;1174;-27
2022/12/06 01:40:11;;;;;;;;;;;;;;;28.05;25.03;101567.94;5093549;28;1029;-28
2022/12/06 01:42:36;;;;;;;;;;;;;;;27.68;25.85;101561.97;5099590;28;1151;-29
2022/12/06 01:45:01;;;;;;;;;;;;;;;27.90;25.52;101557.81;5099495;28;1178;-27
2022/12/06 01:47:27;;;;;;;;;;;;;;;28.54;24.44;101558.94;5099496;28;1906;-29
2022/12/06 01:49:55;;;;;;;;;;;;;;;28.08;25.09;101545.94;5099692;28;1143;-27
2022/12/06 01:52:22;;;;;;;;;;;;;;;27.60;25.98;101550.16;5076776;28;1172;-29
2022/12/06 01:54:47;;;;;;;;;;;;;;;27.71;25.55;101556.28;5081455;28;1167;-28
2022/12/06 01:57:12;;;;;;;;;;;;;;;28.23;24.46;101549.66;5099838;28;1237;-27
2022/12/06 01:59:38;;;;;;;;;;;;;;;28.46;24.63;101553.56;5081160;28;1245;-27
2022/12/06 02:02:03;;;;;;;;;;;;;;;27.75;25.52;101547.66;5097877;28;1162;-28
2022/12/06 02:04:29;;;;;;;;;;;;;;;27.71;26.01;101554.41;5096784;28;1218;-28
2022/12/06 02:06:54;;;;;;;;;;;;;;;28.07;24.95;101555.94;5098708;28;1958;-27
2022/12/06 02:09:20;;;;;;;;;;;;;;;28.61;24.54;101556.41;5099388;28;1083;-29
2022/12/06 02:11:46;;;;;;;;;;;;;;;27.93;25.53;101549.34;5098598;28;1151;-27
2022/12/06 02:14:12;;;;;;;;;;;;;;;27.55;25.71;101547.09;5097664;28;1147;-27
2022/12/06 02:16:50;;;;;;;;;;;;;;;27.68;26.01;101535.81;5077140;28;1175;-28
2022/12/06 02:19:35;;;;;;;;;;;;;;;28.32;25.05;101534.28;5081339;28;1183;-30
2022/12/06 02:22:18;;;;;;;;;;;;;;;28.43;24.61;101535.78;5098342;28;1167;-29
2022/12/06 02:24:46;;;;;;;;;;;;;;;27.51;26.18;101530.38;5098765;28;1119;-27
2022/12/06 02:27:30;;;;;;;;;;;;;;;27.71;25.65;101529.25;5094568;28;1910;-29
2022/12/06 02:29:58;;;;;;;;;;;;;;;28.40;24.94;101535.28;5098421;28;1182;-27
2022/12/06 02:32:24;;;;;;;;;;;;;;;28.69;24.60;101531.16;5098603;28;1218;-29
2022/12/06 02:34:59;;;;;;;;;;;;;;;27.85;25.29;101533.13;5098361;28;1222;-27
2022/12/06 02:37:36;;;;;;;;;;;;;;;27.73;25.52;101525.34;5080745;28;1182;-29
2022/12/06 02:40:03;;;;;;;;;;;;;;;28.47;24.82;101525.47;5078010;28;904;-28
2022/12/06 02:42:30;;;;;;;;;;;;;;;28.47;24.50;101528.19;5098371;28;1214;-28
2022/12/06 02:44:57;;;;;;;;;;;;;;;27.65;25.67;101533.44;5080200;28;1112;-29
2022/12/06 02:47:32;;;;;;;;;;;;;;;27.48;26.26;101525.31;5098757;28;2276;-28
2022/12/06 02:49:57;;;;;;;;;;;;;;;27.91;25.39;101526.22;5080293;28;997;-28
2022/12/06 02:52:24;;;;;;;;;;;;;;;28.52;24.87;101527.66;5078865;28;937;-27
2022/12/06 02:54:49;;;;;;;;;;;;;;;28.05;25.46;101527.38;5079842;28;1195;-27
2022/12/06 02:57:14;;;;;;;;;;;;;;;27.62;26.08;101523.81;5098436;28;1277;-27
2022/12/06 02:59:49;;;;;;;;;;;;;;;27.78;25.89;101527.53;5097844;28;1184;-30
2022/12/06 03:02:14;;;;;;;;;;;;;;;28.40;24.80;101527.16;5098034;28;1155;-28
2022/12/06 03:04:47;;;;;;;;;;;;;;;28.53;24.42;101521.25;5066794;28;1222;-27
2022/12/06 03:07:23;;;;;;;;;;;;;;;27.63;26.00;101530.03;5097518;28;1959;-26
2022/12/06 03:09:49;;;;;;;;;;;;;;;27.69;25.98;101525.88;5080349;28;1182;-29
2022/12/06 03:12:34;;;;;;;;;;;;;;;28.22;24.82;101525.50;5098008;28;1115;-29
2022/12/06 03:15:11;;;;;;;;;;;;;;;28.43;24.84;101524.09;5094905;28;1119;-32
2022/12/06 03:17:39;;;;;;;;;;;;;;;27.74;25.58;101523.50;5079610;28;1131;-26
2022/12/06 03:20:09;;;;;;;;;;;;;;;27.65;26.14;101513.66;5097709;28;1123;-29
2022/12/06 03:22:38;;;;;;;;;;;;;;;28.22;24.56;101529.06;5079131;28;1112;-29
2022/12/06 03:25:04;;;;;;;;;;;;;;;28.52;24.87;101528.50;5097451;28;1183;-27
2022/12/06 03:27:29;;;;;;;;;;;;;;;27.84;25.46;101536.84;5079364;28;1969;-30
2022/12/06 03:29:55;;;;;;;;;;;;;;;27.69;25.79;101534.81;5062698;28;1167;-28
2022/12/06 03:32:22;;;;;;;;;;;;;;;28.01;25.34;101537.66;5079808;28;1183;-27
2022/12/06 03:34:48;;;;;;;;;;;;;;;28.67;24.54;101541.31;5079237;28;1198;-29
2022/12/06 03:37:15;;;;;;;;;;;;;;;28.02;25.53;101535.81;5097299;28;1158;-27
2022/12/06 03:39:43;;;;;;;;;;;;;;;27.67;25.85;101530.56;5089266;28;1194;-29
2022/12/06 03:42:08;;;;;;;;;;;;;;;27.85;25.63;101530.41;5093040;28;1378;-28
2022/12/06 03:44:34;;;;;;;;;;;;;;;28.57;24.97;101533.38;5097285;28;1131;-26
2022/12/06 03:47:01;;;;;;;;;;;;;;;28.28;25.26;101529.38;5096859;28;1897;-28
2022/12/06 03:49:37;;;;;;;;;;;;;;;27.66;25.88;101529.69;5079313;28;1283;-29
2022/12/06 03:52:02;;;;;;;;;;;;;;;27.77;25.81;101527.72;5068901;28;1191;-28
2022/12/06 03:54:28;;;;;;;;;;;;;;;28.52;25.05;101533.06;5095771;28;1198;-27
2022/12/06 03:56:53;;;;;;;;;;;;;;;28.62;24.08;101538.28;5097326;28;1147;-30
2022/12/06 03:59:18;;;;;;;;;;;;;;;27.72;25.95;101529.09;5097046;28;1214;-28
2022/12/06 04:01:43;;;;;;;;;;;;;;;27.74;25.75;101527.03;5096925;28;1271;-26
2022/12/06 04:04:09;;;;;;;;;;;;;;;28.35;24.95;101522.28;5087601;28;1462;-29
2022/12/06 04:06:34;;;;;;;;;;;;;;;28.51;24.70;101521.38;5096298;28;1905;-27
2022/12/06 04:11:43;;;;;;;;;;;;;;;27.77;26.04;101519.59;5096415;28;1175;-28
2022/12/06 04:14:09;;;;;;;;;;;;;;;28.50;24.86;101521.56;5096836;28;1143;-30
2022/12/06 04:19:18;;;;;;;;;;;;;;;27.33;25.76;101514.28;5096798;28;1167;-31
2022/12/06 04:24:27;;;;;;;;;;;;;;;27.06;23.61;101518.13;5096515;28;1176;-30
2022/12/06 04:28:40;;;;;;;;;;;;;;;27.09;23.95;101523.19;5096563;28;1902;-26
2022/12/06 04:40:33;;;;;;;;;;;;;;;25.34;25.20;101522.75;5084206;28;905;-24
2022/12/06 04:45:42;;;;;;;;;;;;;;;26.06;24.43;101523.75;5084380;28;953;-24
2022/12/06 04:48:09;;;;;;;;;;;;;;;25.97;24.56;101527.41;5096056;28;1901;-25
2022/12/06 04:50:35;;;;;;;;;;;;;;;26.58;23.74;101518.53;5096413;28;1091;-24
2022/12/06 04:53:00;;;;;;;;;;;;;;;26.88;23.20;101525.28;5094147;28;870;-25
2022/12/06 04:55:25;;;;;;;;;;;;;;;26.32;23.49;101525.66;5096207;28;1111;-22
2022/12/06 04:57:51;;;;;;;;;;;;;;;26.23;24.44;101530.13;5095862;28;1155;-26
2022/12/06 05:00:16;;;;;;;;;;;;;;;26.78;23.20;101520.00;5096304;28;1190;-24
2022/12/06 05:02:41;;;;;;;;;;;;;;;26.46;23.95;101523.41;5096335;28;1218;-26
2022/12/06 05:05:07;;;;;;;;;;;;;;;26.51;23.93;101523.72;5096356;28;825;-26
2022/12/06 05:07:32;;;;;;;;;;;;;;;26.67;24.25;101519.44;5100022;28;1960;-24
2022/12/06 05:09:57;;;;;;;;;;;;;;;27.16;23.67;101526.91;5100296;28;1195;-25
2022/12/06 05:12:23;;;;;;;;;;;;;;;27.34;23.74;101526.78;5100074;28;1182;-25
2022/12/06 05:14:48;;;;;;;;;;;;;;;27.29;23.78;101520.19;5100324;28;1143;-26
2022/12/06 05:17:13;;;;;;;;;;;;;;;27.27;23.78;101517.66;5099934;28;900;-24
2022/12/06 05:19:38;;;;;;;;;;;;;;;27.22;24.03;101526.28;5100010;28;1150;-24
2022/12/06 05:22:04;;;;;;;;;;;;;;;27.10;24.44;101516.78;5100356;28;1238;-24
2022/12/06 05:24:29;;;;;;;;;;;;;;;26.97;24.38;101517.22;5100148;28;1202;-24
2022/12/06 05:26:54;;;;;;;;;;;;;;;26.92;24.70;101516.84;5099852;28;1906;-24
2022/12/06 05:29:19;;;;;;;;;;;;;;;26.90;24.54;101507.06;5099724;28;1005;-25
2022/12/06 05:31:45;;;;;;;;;;;;;;;27.21;24.64;101512.94;5097107;28;2517;-24
2022/12/06 05:34:10;;;;;;;;;;;;;;;27.55;24.40;101514.66;5098926;28;1912;-24
2022/12/06 05:36:35;;;;;;;;;;;;;;;27.37;24.13;101517.53;5093221;28;2050;-24
2022/12/06 05:39:01;;;;;;;;;;;;;;;27.20;24.77;101512.09;5093144;28;1844;-25
2022/12/06 05:41:26;;;;;;;;;;;;;;;27.21;24.79;101526.44;5096711;28;1820;-23
2022/12/06 05:43:51;;;;;;;;;;;;;;;27.31;24.54;101518.19;5092908;28;1902;-24
2022/12/06 05:46:17;;;;;;;;;;;;;;;27.16;24.83;101515.28;5097480;28;1902;-24
2022/12/06 05:48:42;;;;;;;;;;;;;;;26.96;24.94;101516.34;5092762;28;1108;-25
2022/12/06 05:51:07;;;;;;;;;;;;;;;27.10;25.11;101516.78;5099230;28;1159;-24
2022/12/06 05:53:33;;;;;;;;;;;;;;;27.34;24.73;101515.97;5098483;28;1127;-24
2022/12/06 05:56:05;;;;;;;;;;;;;;;27.54;24.62;101515.69;5099132;28;1234;-27
2022/12/06 05:58:30;;;;;;;;;;;;;;;27.72;23.96;101515.56;5091231;28;1192;-26
2022/12/06 06:00:55;;;;;;;;;;;;;;;27.29;25.13;101518.34;5098769;28;1091;-26
2022/12/06 06:03:20;;;;;;;;;;;;;;;27.57;24.44;101517.19;5090223;28;1178;-24
2022/12/06 06:05:49;;;;;;;;;;;;;;;27.42;24.76;101520.56;5098795;28;885;-24
2022/12/06 06:08:15;;;;;;;;;;;;;;;27.22;24.81;101528.13;5086641;28;1964;-25
2022/12/06 06:10:40;;;;;;;;;;;;;;;27.00;25.38;101522.28;5098460;28;1115;-25
2022/12/06 06:13:06;;;;;;;;;;;;;;;27.19;25.01;101529.31;5094628;28;1379;-24
2022/12/06 06:15:31;;;;;;;;;;;;;;;27.51;24.80;101526.81;5091847;28;1910;-24
2022/12/06 06:17:56;;;;;;;;;;;;;;;27.54;24.72;101523.81;5093771;28;968;-24
2022/12/06 06:20:21;;;;;;;;;;;;;;;27.66;24.65;101528.88;5095195;28;1535;-23
2022/12/06 06:22:47;;;;;;;;;;;;;;;27.46;25.16;101521.91;5090858;28;1203;-23
2022/12/06 06:25:12;;;;;;;;;;;;;;;27.62;24.89;101526.50;5094936;28;1608;-25
2022/12/06 06:27:37;;;;;;;;;;;;;;;27.29;24.65;101531.88;5096035;28;1976;-24
2022/12/06 06:30:07;;;;;;;;;;;;;;;27.06;25.57;101528.94;5087011;28;1029;-24
2022/12/06 06:32:32;;;;;;;;;;;;;;;26.93;26.13;101521.22;5091409;28;2135;-25
2022/12/06 06:34:57;;;;;;;;;;;;;;;27.15;26.22;101522.53;4968800;28;8175;-24
2022/12/06 06:37:23;;;;;;;;;;;;;;;27.39;25.58;101523.59;4998669;28;1212;-24
2022/12/06 06:39:48;;;;;;;;;;;;;;;27.29;25.31;101522.91;5015952;28;1096;-24
2022/12/06 06:42:14;;;;;;;;;;;;;;;27.37;25.01;101525.63;5017012;28;898;-25
2022/12/06 06:44:39;;;;;;;;;;;;;;;27.31;25.35;101513.59;5018561;28;1231;-23
2022/12/06 06:47:04;;;;;;;;;;;;;;;27.47;25.23;101512.81;5017822;28;1964;-24
2022/12/06 06:49:30;;;;;;;;;;;;;;;27.13;25.64;101516.44;5017997;28;1164;-24
2022/12/06 06:51:55;;;;;;;;;;;;;;;26.78;26.02;101514.63;5018076;28;1124;-25
2022/12/06 06:54:20;;;;;;;;;;;;;;;26.95;25.99;101514.69;5018667;28;998;-24
2022/12/06 06:56:46;;;;;;;;;;;;;;;27.17;25.33;101517.81;5018244;28;1172;-24
2022/12/06 06:59:11;;;;;;;;;;;;;;;27.43;24.96;101516.84;5018143;28;1156;-27
2022/12/06 07:01:37;;;;;;;;;;;;;;;27.26;25.01;101513.25;5017888;28;1172;-24
2022/12/06 07:04:02;;;;;;;;;;;;;;;27.10;25.46;101519.47;5017924;28;1183;-24
2022/12/06 07:06:27;;;;;;;;;;;;;;;27.09;25.47;101517.78;5018098;28;1898;-27
2022/12/06 07:08:53;;;;;;;;;;;;;;;27.19;25.28;101509.53;5018089;28;1227;-25
2022/12/06 07:11:18;;;;;;;;;;;;;;;26.99;25.68;101521.44;5017627;28;1140;-25
2022/12/06 07:13:43;;;;;;;;;;;;;;;26.72;25.94;101512.56;5017823;28;1227;-24
2022/12/06 07:16:12;;;;;;;;;;;;;;;26.95;25.75;101509.28;5017629;28;1214;-24
2022/12/06 07:18:38;;;;;;;;;;;;;;;27.16;25.58;101508.00;5017621;28;973;-25
2022/12/06 07:21:04;;;;;;;;;;;;;;;27.28;25.15;101511.25;5018105;28;1238;-28
2022/12/06 07:23:30;;;;;;;;;;;;;;;27.31;25.20;101512.78;5017651;28;1200;-24
2022/12/06 07:26:01;;;;;;;;;;;;;;;27.31;25.18;101508.22;5017568;28;1203;-25
2022/12/06 07:28:26;;;;;;;;;;;;;;;27.20;25.49;101506.69;5017427;28;1898;-24
2022/12/06 07:30:51;;;;;;;;;;;;;;;27.45;25.03;101513.97;5011255;28;974;-26
2022/12/06 07:33:16;;;;;;;;;;;;;;;27.07;25.39;101501.75;5017661;28;1175;-27
2022/12/06 07:35:42;;;;;;;;;;;;;;;26.78;26.08;101509.22;5017574;28;1250;-24
2022/12/06 07:38:07;;;;;;;;;;;;;;;26.91;25.75;101510.59;5017613;28;1184;-26
2022/12/06 07:40:32;;;;;;;;;;;;;;;27.09;25.36;101504.28;5017158;28;1365;-23
2022/12/06 07:45:41;;;;;;;;;;;;;;;27.35;25.12;101500.63;5017166;28;1187;-27
2022/12/06 07:48:07;;;;;;;;;;;;;;;27.22;25.51;101503.81;5017250;28;1914;-23
2022/12/06 07:50:32;;;;;;;;;;;;;;;27.26;25.51;101495.19;5017436;28;1219;-25
2022/12/06 07:52:57;;;;;;;;;;;;;;;27.30;25.00;101501.13;5017130;28;1167;-24
2022/12/06 07:55:23;;;;;;;;;;;;;;;27.01;25.54;101497.84;5016971;28;1152;-24
2022/12/06 07:57:48;;;;;;;;;;;;;;;26.85;25.71;101504.00;5017244;28;1393;-26
2022/12/06 08:00:14;;;;;;;;;;;;;;;26.97;25.71;101492.91;5016945;28;1236;-27
2022/12/06 08:02:40;;;;;;;;;;;;;;;27.20;25.57;101495.88;5017272;28;1211;-24
2022/12/06 08:05:05;;;;;;;;;;;;;;;27.47;24.95;101491.19;5016602;28;1474;-25
2022/12/06 08:07:31;;;;;;;;;;;;;;;27.24;25.26;101489.13;5017572;28;1955;-24
2022/12/06 08:09:56;;;;;;;;;;;;;;;27.17;25.42;101489.94;5016651;28;1171;-25
2022/12/06 08:12:21;;;;;;;;;;;;;;;27.23;25.20;101483.88;5017004;28;1200;-24
2022/12/06 08:14:47;;;;;;;;;;;;;;;27.35;25.06;101476.31;5016853;28;1220;-25
2022/12/06 08:17:12;;;;;;;;;;;;;;;27.02;25.70;101469.84;5016528;28;1140;-26
2022/12/06 08:19:37;;;;;;;;;;;;;;;26.94;25.95;101464.41;5016970;28;1160;-24
2022/12/06 08:22:03;;;;;;;;;;;;;;;26.94;25.66;101452.75;5017373;28;1112;-29
2022/12/06 08:24:28;;;;;;;;;;;;;;;27.28;25.47;101462.63;5016445;28;1128;-25
2022/12/06 08:26:53;;;;;;;;;;;;;;;27.63;24.93;101463.31;5016991;28;1977;-23
2022/12/06 08:29:19;;;;;;;;;;;;;;;27.33;25.19;101459.41;5016279;28;1160;-24
2022/12/06 08:31:44;;;;;;;;;;;;;;;27.19;25.63;101467.19;5016543;28;1136;-24
2022/12/06 08:34:09;;;;;;;;;;;;;;;27.56;25.13;101470.41;5016601;28;1120;-25
2022/12/06 08:36:35;;;;;;;;;;;;;;;27.47;25.22;101471.44;5016835;28;1136;-23
2022/12/06 08:39:00;;;;;;;;;;;;;;;27.11;25.63;101475.28;5015075;28;1332;-25
2022/12/06 08:41:58;;;;;;;;;;;;;;;26.97;25.68;101466.75;5015396;28;1481;-25
2022/12/06 08:44:17;;;;;;;;;;;;;;;27.15;25.28;101460.41;5015427;28;1394;-25
2022/12/06 08:46:42;;;;;;;;;;;;;;;27.46;25.26;101459.75;5015823;28;1890;-23
2022/12/06 08:49:08;;;;;;;;;;;;;;;27.42;25.06;101454.88;5016743;28;1227;-25
2022/12/06 08:51:33;;;;;;;;;;;;;;;27.34;25.38;101453.84;5014936;28;1826;-25
2022/12/06 08:53:59;;;;;;;;;;;;;;;27.20;25.18;101449.97;5016201;28;869;-24
2022/12/06 08:56:24;;;;;;;;;;;;;;;27.30;25.18;101447.09;5016064;28;1206;-24
2022/12/06 08:58:50;;;;;;;;;;;;;;;27.12;25.61;101439.16;5016498;28;1164;-26
2022/12/06 09:01:17;;;;;;;;;;;;;;;26.85;26.05;101436.53;5016695;28;1136;-24
2022/12/06 09:03:42;;;;;;;;;;;;;;;26.99;25.85;101434.19;5016546;28;1227;-25
2022/12/06 09:06:07;;;;;;;;;;;;;;;27.29;25.08;101433.75;5015795;28;1136;-26
2022/12/06 09:08:33;;;;;;;;;;;;;;;27.48;25.13;101428.03;5015820;28;1906;-24
2022/12/06 09:10:58;;;;;;;;;;;;;;;27.31;25.35;101431.75;5016756;28;1273;-24
2022/12/06 09:13:23;;;;;;;;;;;;;;;27.15;25.58;101430.69;5016397;28;1270;-24
2022/12/06 09:15:49;;;;;;;;;;;;;;;27.22;25.38;101428.19;5016139;28;1180;-25
2022/12/06 09:18:14;;;;;;;;;;;;;;;27.61;24.68;101423.97;5016067;28;1192;-24
2022/12/06 09:20:39;;;;;;;;;;;;;;;27.23;25.21;101425.31;5016509;28;1199;-25
2022/12/06 09:23:05;;;;;;;;;;;;;;;26.97;25.86;101414.63;5016281;28;1128;-24
2022/12/06 09:25:30;;;;;;;;;;;;;;;27.14;25.31;101416.34;5016275;28;1164;-24
2022/12/06 09:27:55;;;;;;;;;;;;;;;27.45;24.97;101411.31;5016061;28;1910;-25
2022/12/06 09:30:21;;;;;;;;;;;;;;;27.56;24.77;101399.31;5014424;28;1173;-24
2022/12/06 09:32:47;;;;;;;;;;;;;;;27.32;25.21;101399.16;5015959;28;1104;-27
2022/12/06 09:35:12;;;;;;;;;;;;;;;27.25;25.17;101390.88;5015943;28;1229;-27
2022/12/06 09:37:37;;;;;;;;;;;;;;;27.19;25.54;101396.97;5015444;28;1489;-25
2022/12/06 09:40:07;;;;;;;;;;;;;;;27.16;25.31;101397.28;5015784;28;1227;-23
2022/12/06 09:42:44;;;;;;;;;;;;;;;26.90;25.64;101387.44;5014776;28;1232;-26
2022/12/06 09:45:28;;;;;;;;;;;;;;;26.84;25.91;101374.59;5016084;28;1238;-25
2022/12/06 09:48:12;;;;;;;;;;;;;;;26.98;25.45;101379.34;5015700;28;1959;-24
2022/12/06 09:50:49;;;;;;;;;;;;;;;27.49;25.04;101372.97;5003527;28;1085;-24
2022/12/06 09:53:15;;;;;;;;;;;;;;;27.37;24.87;101379.72;5017845;28;1235;-25
2022/12/06 09:55:46;;;;;;;;;;;;;;;27.28;25.14;101378.88;5019035;28;902;-25
2022/12/06 09:58:16;;;;;;;;;;;;;;;27.22;25.34;101376.88;5019259;28;1194;-28
2022/12/06 10:00:46;;;;;;;;;;;;;;;27.18;25.51;101375.50;5018979;28;1081;-26
2022/12/06 10:03:50;;;;;;;;;;;;;;;26.92;25.78;101377.31;5018342;28;1231;-25
2022/12/06 10:06:16;;;;;;;;;;;;;;;26.84;25.86;101367.34;4992394;28;1169;-25
2022/12/06 10:08:50;;;;;;;;;;;;;;;27.06;25.49;101361.50;4980657;28;1894;-26
2022/12/06 10:11:15;;;;;;;;;;;;;;;27.42;24.97;101352.19;5007271;28;1176;-24
2022/12/06 10:13:49;;;;;;;;;;;;;;;27.37;25.29;101350.88;5018869;28;1548;-26
2022/12/06 10:16:30;;;;;;;;;;;;;;;27.32;25.37;101352.38;5018965;28;1240;-24
2022/12/06 10:19:02;;;;;;;;;;;;;;;27.35;25.41;101342.09;5016172;28;1254;-23
2022/12/06 10:21:35;;;;;;;;;;;;;;;27.61;24.84;101340.19;5008010;28;1188;-24
2022/12/06 10:24:05;;;;;;;;;;;;;;;27.28;25.27;101332.97;5017895;28;1133;-26
2022/12/06 10:26:33;;;;;;;;;;;;;;;27.01;25.32;101319.63;5018684;28;1906;-25
2022/12/06 10:29:17;;;;;;;;;;;;;;;27.13;25.47;101330.94;5017183;28;1165;-24
2022/12/06 10:31:52;;;;;;;;;;;;;;;27.44;25.27;101334.81;5018047;28;906;-24
2022/12/06 10:34:24;;;;;;;;;;;;;;;27.58;24.66;101327.00;5017610;28;1165;-23
2022/12/06 10:37:08;;;;;;;;;;;;;;;27.35;25.12;101319.63;5018726;28;1073;-27
2022/12/06 10:39:47;;;;;;;;;;;;;;;27.25;25.31;101322.50;5018206;28;1400;-24
2022/12/06 10:42:15;;;;;;;;;;;;;;;27.53;24.85;101303.22;5017320;28;1204;-25
2022/12/06 10:44:43;;;;;;;;;;;;;;;27.26;25.22;101313.38;5018501;28;1167;-24
2022/12/06 10:47:27;;;;;;;;;;;;;;;27.09;25.66;101307.97;5018763;28;1965;-26
2022/12/06 10:50:11;;;;;;;;;;;;;;;27.23;25.31;101302.91;5017119;28;1235;-25
2022/12/06 10:52:45;;;;;;;;;;;;;;;27.57;24.77;101311.81;5018296;28;1140;-24
2022/12/06 10:55:10;;;;;;;;;;;;;;;27.45;25.16;101303.22;5018133;28;1180;-24
2022/12/06 10:57:41;;;;;;;;;;;;;;;27.37;24.99;101301.38;5018318;28;1168;-25
2022/12/06 11:00:17;;;;;;;;;;;;;;;27.27;25.42;101306.97;5017869;28;1210;-26
2022/12/06 11:02:46;;;;;;;;;;;;;;;27.59;24.82;101305.22;5016874;28;1157;-26
2022/12/06 11:05:31;;;;;;;;;;;;;;;27.28;25.51;101297.84;5016726;28;1196;-23
2022/12/06 11:08:08;;;;;;;;;;;;;;;27.10;25.71;101296.19;5013293;28;1978;-24
2022/12/06 11:10:33;;;;;;;;;;;;;;;27.14;25.48;101296.69;5005561;28;1253;-25
2022/12/06 11:13:08;;;;;;;;;;;;;;;27.43;25.37;101289.03;5017027;28;1216;-25
2022/12/06 11:15:34;;;;;;;;;;;;;;;27.52;25.12;101277.22;5015668;28;1282;-26
2022/12/06 11:18:08;;;;;;;;;;;;;;;27.59;24.86;101280.88;5016348;28;1168;-24
2022/12/06 11:20:38;;;;;;;;;;;;;;;27.31;25.70;101277.78;5008979;28;966;-26
2022/12/06 11:23:22;;;;;;;;;;;;;;;27.75;25.49;101281.91;5015142;28;1168;-23
2022/12/06 11:25:53;;;;;;;;;;;;;;;27.48;25.54;101276.72;5007568;28;1220;-24
2022/12/06 11:28:25;;;;;;;;;;;;;;;27.21;25.99;101276.06;5017921;28;1979;-27
2022/12/06 11:30:50;;;;;;;;;;;;;;;27.55;25.96;101284.97;5013149;28;1140;-23
2022/12/06 11:33:16;;;;;;;;;;;;;;;27.81;25.62;101275.78;5012668;28;1131;-23
2022/12/06 11:35:41;;;;;;;;;;;;;;;27.55;25.64;101273.31;5011050;28;1404;-24
2022/12/06 11:38:07;;;;;;;;;;;;;;;27.31;26.05;101266.97;5015331;28;1469;-23
2022/12/06 11:40:35;;;;;;;;;;;;;;;27.51;26.02;101259.28;5017397;28;1125;-27
2022/12/06 11:43:01;;;;;;;;;;;;;;;27.74;25.72;101262.13;5016608;28;1128;-24
2022/12/06 11:45:28;;;;;;;;;;;;;;;27.72;25.36;101258.78;5015836;28;1207;-25
2022/12/06 11:47:54;;;;;;;;;;;;;;;27.65;25.44;101263.16;5015617;28;1903;-24
2022/12/06 11:50:19;;;;;;;;;;;;;;;27.50;26.19;101255.78;5015251;28;1165;-26
2022/12/06 11:53:24;;;;;;;;;;;;;;;27.67;25.41;101254.88;5002763;28;1061;-24
2022/12/06 11:56:09;;;;;;;;;;;;;;;27.38;26.21;101246.34;4947384;29;1171;-25
2022/12/06 11:58:42;;;;;;;;;;;;;;;27.28;26.32;101256.50;4955110;29;1246;-23
2022/12/06 12:01:13;;;;;;;;;;;;;;;27.49;26.21;101251.38;4987242;28;1169;-23
2022/12/06 12:03:39;;;;;;;;;;;;;;;27.75;25.69;101247.59;5015981;28;1192;-25
2022/12/06 12:06:08;;;;;;;;;;;;;;;27.53;25.76;101251.88;5015157;28;1204;-23
2022/12/06 12:08:33;;;;;;;;;;;;;;;27.53;25.91;101249.16;5013250;28;1972;-26
2022/12/06 12:10:59;;;;;;;;;;;;;;;27.53;26.21;101251.88;5001838;28;1276;-23
2022/12/06 12:16:11;;;;;;;;;;;;;;;27.79;25.76;101247.25;5015843;28;1306;-24
2022/12/06 12:18:37;;;;;;;;;;;;;;;27.55;26.29;101244.44;5016751;28;1163;-25
2022/12/06 12:21:02;;;;;;;;;;;;;;;27.59;26.50;101256.56;5014702;28;1082;-24
2022/12/06 12:23:29;;;;;;;;;;;;;;;27.69;26.37;101245.63;5011119;28;1018;-23
2022/12/06 12:26:13;;;;;;;;;;;;;;;27.77;25.53;101242.03;5011538;28;1219;-24
2022/12/06 12:28:39;;;;;;;;;;;;;;;27.63;26.14;101241.69;5013783;28;1972;-25
2022/12/06 12:31:22;;;;;;;;;;;;;;;27.71;26.06;101242.72;5015381;28;1136;-24
2022/12/06 12:33:48;;;;;;;;;;;;;;;27.87;25.62;101244.50;5006817;28;1125;-24
2022/12/06 12:36:13;;;;;;;;;;;;;;;27.71;25.88;101238.16;4995215;28;1149;-24
2022/12/06 12:38:42;;;;;;;;;;;;;;;27.55;26.12;101239.03;5002557;28;1349;-24
2022/12/06 12:41:27;;;;;;;;;;;;;;;27.68;25.79;101235.81;5003864;28;974;-26
2022/12/06 12:43:59;;;;;;;;;;;;;;;27.91;25.51;101236.91;5011278;28;1121;-23
2022/12/06 12:46:24;;;;;;;;;;;;;;;27.85;25.76;101227.63;5015996;28;1212;-23
2022/12/06 12:48:50;;;;;;;;;;;;;;;27.51;25.95;101230.41;5015625;28;1981;-23
2022/12/06 12:51:21;;;;;;;;;;;;;;;27.77;25.61;101228.50;5016445;28;1160;-23
2022/12/06 12:53:49;;;;;;;;;;;;;;;27.66;26.01;101226.16;5016062;28;1434;-22
2022/12/06 12:56:18;;;;;;;;;;;;;;;27.69;25.62;101221.28;5014537;28;1436;-24
2022/12/06 12:58:43;;;;;;;;;;;;;;;27.46;25.89;101219.28;5002603;28;1018;-23
2022/12/06 13:01:17;;;;;;;;;;;;;;;27.55;25.92;101220.13;5016586;28;1152;-24
2022/12/06 13:03:42;;;;;;;;;;;;;;;27.65;25.50;101219.06;5014909;28;1172;-24
2022/12/06 13:06:12;;;;;;;;;;;;;;;27.86;25.33;101216.63;5016163;28;1240;-24
2022/12/06 13:08:37;;;;;;;;;;;;;;;27.48;26.05;101221.81;5012449;28;1962;-27
2022/12/06 13:11:02;;;;;;;;;;;;;;;27.59;25.84;101216.03;5015031;28;1280;-25
2022/12/06 13:13:29;;;;;;;;;;;;;;;27.78;25.61;101210.44;5013943;28;1283;-23
2022/12/06 13:15:54;;;;;;;;;;;;;;;28.04;25.17;101206.56;5012527;28;1259;-24
2022/12/06 13:18:21;;;;;;;;;;;;;;;27.46;26.08;101205.78;5014835;28;1219;-24